Terminal Aerodrome Forecast
Issued by NWS

Home | Current Version | Previous Version | Text Only | Print | Product List | Glossary On
Versions: 1 2 3 4 5 6 7 8 9 10 11 12 13 14 15 16 17 18 19 20 21 22 23 24 25 26
000
FTUS44 KOUN 241122
TAFWWR
TAF
KWWR 241122Z 2412/2512 19015G24KT P6SM SCT010
      TEMPO 2412/2414 BKN010
     FM241500 19017G26KT P6SM SCT020 PROB30 2422/2502 3SM +TSRA BR
      BKN030CB BKN100
     FM250200 16016G25KT P6SM BKN020 BKN250
      AMD NOT SKED=

USA.gov is the U.S. government's official web portal to all federal, state and local government web resources and services.